createdAt,value
2023-04-03T00:02:04.938Z,100.00
2023-04-03T00:04:31.646Z,100.00
2023-04-03T00:06:58.153Z,100.00
2023-04-03T00:09:24.710Z,100.00
2023-04-03T00:11:51.316Z,100.00
2023-04-03T00:14:17.822Z,100.00
2023-04-03T00:16:44.426Z,100.00
2023-04-03T00:19:12.870Z,100.00
2023-04-03T00:21:40.058Z,100.00
2023-04-03T00:24:07.887Z,100.00
2023-04-03T00:26:34.293Z,100.00
2023-04-03T00:29:00.732Z,100.00
2023-04-03T00:31:27.316Z,100.00
2023-04-03T00:33:53.838Z,100.00
2023-04-03T00:36:20.465Z,100.00
2023-04-03T00:38:46.992Z,100.00
2023-04-03T00:41:13.428Z,100.00
2023-04-03T00:43:39.926Z,100.00
2023-04-03T00:46:06.521Z,100.00
2023-04-03T00:48:41.455Z,100.00
2023-04-03T00:51:21.937Z,100.00
2023-04-03T00:54:03.824Z,100.00
2023-04-03T00:56:31.207Z,100.00
2023-04-03T00:59:11.171Z,100.00
2023-04-03T01:01:38.452Z,100.00
2023-04-03T01:04:06.893Z,100.00
2023-04-03T01:06:38.186Z,100.00
2023-04-03T01:09:05.978Z,100.00
2023-04-03T01:11:33.324Z,100.00
2023-04-03T01:13:59.887Z,100.00
2023-04-03T01:16:27.014Z,100.00
2023-04-03T01:18:53.499Z,100.00
2023-04-03T01:21:38.765Z,100.00
2023-04-03T01:24:32.770Z,100.00
2023-04-03T01:27:00.003Z,100.00
2023-04-03T01:29:26.884Z,100.00
2023-04-03T01:32:01.226Z,100.00
2023-04-03T01:34:29.521Z,100.00
2023-04-03T01:36:56.223Z,100.00
2023-04-03T01:39:22.659Z,100.00
2023-04-03T01:41:50.038Z,100.00
2023-04-03T01:44:16.711Z,100.00
2023-04-03T01:46:43.644Z,100.00
2023-04-03T01:49:10.379Z,100.00
2023-04-03T01:51:37.179Z,100.00
2023-04-03T01:54:03.946Z,100.00
2023-04-03T01:56:30.434Z,100.00
2023-04-03T01:58:56.872Z,100.00
2023-04-03T02:01:23.578Z,100.00
2023-04-03T02:03:50.561Z,100.00
2023-04-03T02:06:17.174Z,100.00
2023-04-03T02:08:43.605Z,100.00
2023-04-03T02:11:10.362Z,100.00
2023-04-03T02:13:36.827Z,100.00
2023-04-03T02:16:11.602Z,100.00
2023-04-03T02:18:38.625Z,100.00
2023-04-03T02:21:05.234Z,100.00
2023-04-03T02:23:31.952Z,100.00
2023-04-03T02:26:09.872Z,100.00
2023-04-03T02:28:36.965Z,100.00
2023-04-03T02:31:04.500Z,100.00
2023-04-03T02:33:31.438Z,100.00
2023-04-03T02:35:59.073Z,100.00
2023-04-03T02:38:26.468Z,100.00
2023-04-03T02:40:53.092Z,100.00
2023-04-03T02:43:19.728Z,100.00
2023-04-03T02:45:46.196Z,100.00
2023-04-03T02:48:13.110Z,100.00
2023-04-03T02:50:39.581Z,100.00
2023-04-03T02:53:06.539Z,100.00
2023-04-03T02:55:32.975Z,100.00
2023-04-03T02:57:59.370Z,100.00
2023-04-03T03:00:28.987Z,100.00
2023-04-03T03:02:55.503Z,100.00
2023-04-03T03:05:22.487Z,100.00
2023-04-03T03:07:49.142Z,100.00
2023-04-03T03:10:15.771Z,100.00
2023-04-03T03:12:42.205Z,100.00
2023-04-03T03:15:10.963Z,100.00
2023-04-03T03:17:37.583Z,100.00
2023-04-03T03:20:06.005Z,100.00
2023-04-03T03:22:33.379Z,100.00
2023-04-03T03:24:59.872Z,100.00
2023-04-03T03:27:26.485Z,100.00
2023-04-03T03:29:52.919Z,100.00
2023-04-03T03:32:19.407Z,100.00
2023-04-03T03:34:46.163Z,100.00
2023-04-03T03:37:13.990Z,100.00
2023-04-03T03:39:40.828Z,100.00
2023-04-03T03:42:07.334Z,100.00
2023-04-03T03:44:33.769Z,100.00
2023-04-03T03:47:00.821Z,100.00
2023-04-03T03:49:27.299Z,100.00
2023-04-03T03:51:53.782Z,100.00
2023-04-03T03:54:20.299Z,100.00
2023-04-03T03:56:46.777Z,100.00
2023-04-03T03:59:13.646Z,100.00
2023-04-03T04:01:40.766Z,100.00
2023-04-03T04:04:07.375Z,100.00
2023-04-03T04:06:38.162Z,100.00
2023-04-03T04:09:10.183Z,100.00
2023-04-03T04:11:36.688Z,100.00
2023-04-03T04:14:03.193Z,100.00
2023-04-03T04:16:29.655Z,100.00
2023-04-03T04:18:56.172Z,100.00
2023-04-03T04:21:23.132Z,100.00
2023-04-03T04:23:49.636Z,100.00
2023-04-03T04:26:16.059Z,100.00
2023-04-03T04:28:43.007Z,100.00
2023-04-03T04:31:09.807Z,100.00
2023-04-03T04:33:36.667Z,100.00
2023-04-03T04:36:03.564Z,100.00
2023-04-03T04:38:30.409Z,100.00
2023-04-03T04:40:56.921Z,100.00
2023-04-03T04:43:23.556Z,100.00
2023-04-03T04:45:50.115Z,100.00
2023-04-03T04:48:17.067Z,100.00
2023-04-03T04:50:44.132Z,100.00
2023-04-03T04:53:10.577Z,100.00
2023-04-03T04:55:37.251Z,100.00
2023-04-03T04:58:04.004Z,100.00
2023-04-03T05:00:30.498Z,100.00
2023-04-03T05:02:56.952Z,100.00
2023-04-03T05:05:24.302Z,100.00
2023-04-03T05:07:50.893Z,100.00
2023-04-03T05:10:17.391Z,100.00
2023-04-03T05:12:43.996Z,100.00
2023-04-03T05:15:10.868Z,100.00
2023-04-03T05:17:37.431Z,100.00
2023-04-03T05:20:06.037Z,100.00
2023-04-03T05:22:32.559Z,100.00
2023-04-03T05:24:59.071Z,100.00
2023-04-03T05:27:26.115Z,100.00
2023-04-03T05:29:54.022Z,100.00
2023-04-03T05:32:21.308Z,100.00
2023-04-03T05:34:47.901Z,100.00
2023-04-03T05:37:14.370Z,100.00
2023-04-03T05:39:41.909Z,100.00
2023-04-03T05:42:08.954Z,100.00
2023-04-03T05:44:36.140Z,100.00
2023-04-03T05:47:02.725Z,100.00
2023-04-03T05:49:29.278Z,100.00
2023-04-03T05:51:56.001Z,100.00
2023-04-03T05:54:28.429Z,100.00
2023-04-03T05:56:55.665Z,100.00
2023-04-03T05:59:22.508Z,100.00
2023-04-03T06:01:49.727Z,100.00
2023-04-03T06:04:16.663Z,100.00
2023-04-03T06:06:49.075Z,100.00
2023-04-03T06:09:16.495Z,100.00
2023-04-03T06:11:43.210Z,100.00
2023-04-03T06:14:10.540Z,100.00
2023-04-03T06:16:39.712Z,100.00
2023-04-03T06:19:07.804Z,100.00
2023-04-03T06:21:34.384Z,100.00
2023-04-03T06:24:01.382Z,100.00
2023-04-03T06:26:28.308Z,100.00
2023-04-03T06:28:55.125Z,100.00
2023-04-03T06:31:21.969Z,100.00
2023-04-03T06:33:48.535Z,100.00
2023-04-03T06:36:15.259Z,100.00
2023-04-03T06:38:41.691Z,100.00
2023-04-03T06:41:08.153Z,100.00
2023-04-03T06:43:35.015Z,100.00
2023-04-03T06:46:02.161Z,100.00
2023-04-03T06:48:28.783Z,100.00
2023-04-03T06:50:57.129Z,100.00
2023-04-03T06:53:23.898Z,100.00
2023-04-03T06:55:50.658Z,100.00
2023-04-03T06:58:19.144Z,100.00
2023-04-03T07:00:48.206Z,100.00
2023-04-03T07:03:14.698Z,100.00
2023-04-03T07:05:41.613Z,100.00
2023-04-03T07:08:08.148Z,100.00
2023-04-03T07:10:34.553Z,100.00
2023-04-03T07:13:02.680Z,100.00
2023-04-03T07:15:29.159Z,100.00
2023-04-03T07:17:55.655Z,100.00
2023-04-03T07:20:22.135Z,100.00
2023-04-03T07:22:48.548Z,100.00
2023-04-03T07:25:15.021Z,100.00
2023-04-03T07:27:41.451Z,100.00
2023-04-03T07:30:08.727Z,100.00
2023-04-03T07:32:35.184Z,100.00
2023-04-03T07:35:02.463Z,100.00
2023-04-03T07:37:29.996Z,100.00
2023-04-03T07:39:58.120Z,100.00
2023-04-03T07:42:26.814Z,100.00
2023-04-03T07:44:54.017Z,100.00
2023-04-03T07:47:22.084Z,100.00
2023-04-03T07:49:51.202Z,100.00
2023-04-03T07:52:17.643Z,100.00
2023-04-03T07:54:44.230Z,100.00
2023-04-03T07:57:11.222Z,100.00
2023-04-03T07:59:37.686Z,100.00
2023-04-03T08:02:06.012Z,100.00
2023-04-03T08:04:32.913Z,99.97
2023-04-03T08:06:59.444Z,96.47
2023-04-03T08:09:26.022Z,94.45
2023-04-03T08:11:54.435Z,94.88
2023-04-03T08:14:21.837Z,93.42
2023-04-03T08:16:49.261Z,90.66
2023-04-03T08:19:25.303Z,82.17
2023-04-03T08:21:53.344Z,75.00
2023-04-03T08:24:19.839Z,73.21
2023-04-03T08:26:46.443Z,72.86
2023-04-03T08:29:14.183Z,65.93
2023-04-03T08:31:40.629Z,67.80
2023-04-03T08:34:07.551Z,63.05
2023-04-03T08:36:33.986Z,58.28
2023-04-03T08:39:00.432Z,55.35
2023-04-03T08:41:46.024Z,54.19
2023-04-03T08:44:30.855Z,53.81
2023-04-03T08:47:19.184Z,48.23
2023-04-03T08:49:54.117Z,48.11
2023-04-03T08:52:35.650Z,45.50
2023-04-03T08:55:08.952Z,44.76
2023-04-03T08:57:45.791Z,42.95
2023-04-03T09:00:18.022Z,42.55
2023-04-03T09:02:48.536Z,37.94
2023-04-03T09:05:26.068Z,39.73
2023-04-03T09:08:05.390Z,39.33
2023-04-03T09:10:36.339Z,36.18
2023-04-03T09:13:14.462Z,38.67
2023-04-03T09:15:42.003Z,35.57
2023-04-03T09:18:20.742Z,34.72
2023-04-03T09:21:15.118Z,34.63
2023-04-03T09:23:50.295Z,32.42
2023-04-03T09:26:30.321Z,32.74
2023-04-03T09:29:00.600Z,30.71
2023-04-03T09:31:49.025Z,30.30
2023-04-03T09:34:24.586Z,30.23
2023-04-03T09:36:53.992Z,30.88
2023-04-03T09:39:24.139Z,29.87
2023-04-03T09:42:03.621Z,31.63
2023-04-03T09:44:36.753Z,31.22
2023-04-03T09:47:36.244Z,31.57
2023-04-03T09:50:20.262Z,30.63
2023-04-03T09:52:50.053Z,29.31
2023-04-03T09:55:29.556Z,29.58
2023-04-03T09:57:59.520Z,29.54
2023-04-03T10:00:30.263Z,30.67
2023-04-03T10:02:57.877Z,30.64
2023-04-03T10:05:36.848Z,29.35
2023-04-03T10:08:16.581Z,29.15
2023-04-03T10:10:48.924Z,28.46
2023-04-03T10:13:22.225Z,28.29
2023-04-03T10:15:56.296Z,29.40
2023-04-03T10:18:30.634Z,29.00
2023-04-03T10:21:14.412Z,27.61
2023-04-03T10:23:51.080Z,29.41
2023-04-03T10:26:43.012Z,27.66
2023-04-03T10:29:21.820Z,27.37
2023-04-03T10:32:09.840Z,29.75
2023-04-03T10:35:02.325Z,28.39
2023-04-03T10:37:42.327Z,29.10
2023-04-03T10:40:39.232Z,29.67
2023-04-03T10:43:44.458Z,28.61
2023-04-03T10:46:18.092Z,28.34
2023-04-03T10:48:50.673Z,28.74
2023-04-03T10:51:46.585Z,27.44
2023-04-03T10:54:18.908Z,29.24
2023-04-03T10:57:04.680Z,28.59
2023-04-03T10:59:45.408Z,30.24
2023-04-03T11:02:41.294Z,29.37
2023-04-03T11:05:19.620Z,29.66
2023-04-03T11:07:53.602Z,31.57
2023-04-03T11:10:46.620Z,30.93
2023-04-03T11:13:21.925Z,29.45
2023-04-03T11:15:50.298Z,30.15
2023-04-03T11:18:22.601Z,30.81
2023-04-03T11:21:00.162Z,30.57
2023-04-03T11:23:32.811Z,28.97
2023-04-03T11:26:18.778Z,29.45
2023-04-03T11:28:46.827Z,30.99
2023-04-03T11:31:48.330Z,30.40
2023-04-03T11:34:21.243Z,31.31
2023-04-03T11:36:51.285Z,31.06
2023-04-03T11:39:35.306Z,32.65
2023-04-03T11:42:27.282Z,33.43
2023-04-03T11:45:18.421Z,33.10
2023-04-03T11:47:49.504Z,29.93
2023-04-03T11:50:48.820Z,29.85
2023-04-03T11:53:15.267Z,32.01
2023-04-03T11:55:46.592Z,31.15
2023-04-03T11:58:23.443Z,31.41
2023-04-03T12:01:01.545Z,32.09
2023-04-03T12:03:46.287Z,29.89
2023-04-03T12:06:14.691Z,29.40
2023-04-03T12:08:41.449Z,31.19
2023-04-03T12:11:14.191Z,31.55
2023-04-03T12:13:49.733Z,32.00
2023-04-03T12:16:49.883Z,30.31
2023-04-03T12:19:16.977Z,28.73
2023-04-03T12:21:49.589Z,30.99
2023-04-03T12:24:16.188Z,31.17
2023-04-03T12:26:58.109Z,31.89
2023-04-03T12:29:30.802Z,31.23
2023-04-03T12:32:25.249Z,29.54
2023-04-03T12:35:09.781Z,30.56
2023-04-03T12:37:59.230Z,29.30
2023-04-03T12:40:43.805Z,33.87
2023-04-03T12:43:16.100Z,30.65
2023-04-03T12:45:57.596Z,30.52
2023-04-03T12:48:27.456Z,33.11
2023-04-03T12:50:54.918Z,31.89
2023-04-03T12:53:36.978Z,34.19
2023-04-03T12:56:24.596Z,32.60
2023-04-03T12:58:52.952Z,34.84
2023-04-03T13:01:25.505Z,32.32
2023-04-03T13:03:59.524Z,35.89
2023-04-03T13:06:32.110Z,34.47
2023-04-03T13:09:01.549Z,33.42
2023-04-03T13:11:33.395Z,33.73
2023-04-03T13:14:03.141Z,34.88
2023-04-03T13:16:30.589Z,35.36
2023-04-03T13:18:57.099Z,34.84
2023-04-03T13:21:34.156Z,32.80
2023-04-03T13:24:14.979Z,33.41
2023-04-03T13:26:43.160Z,34.58
2023-04-03T13:29:30.078Z,35.48
2023-04-03T13:31:59.513Z,35.20
2023-04-03T13:34:29.710Z,34.55
2023-04-03T13:37:01.835Z,36.82
2023-04-03T13:39:34.612Z,35.72
2023-04-03T13:42:15.407Z,35.47
2023-04-03T13:44:42.096Z,33.27
2023-04-03T13:47:11.273Z,34.85
2023-04-03T13:49:47.132Z,33.51
2023-04-03T13:52:40.821Z,34.58
2023-04-03T13:55:27.336Z,35.39
2023-04-03T13:58:19.566Z,34.94
2023-04-03T14:00:51.782Z,34.12
2023-04-03T14:03:32.264Z,34.93
2023-04-03T14:05:59.790Z,34.79
2023-04-03T14:08:39.711Z,35.20
2023-04-03T14:11:24.970Z,35.56
2023-04-03T14:13:51.905Z,37.49
2023-04-03T14:16:24.297Z,36.38
2023-04-03T14:18:52.480Z,37.31
2023-04-03T14:21:21.084Z,37.82
2023-04-03T14:23:48.976Z,37.70
2023-04-03T14:26:22.508Z,36.32
2023-04-03T14:28:53.202Z,36.51
2023-04-03T14:31:21.763Z,37.31
2023-04-03T14:33:48.491Z,36.28
2023-04-03T14:36:23.514Z,37.72
2023-04-03T14:38:51.396Z,37.48
2023-04-03T14:41:21.381Z,37.63
2023-04-03T14:43:50.042Z,37.38
2023-04-03T14:46:19.531Z,40.50
2023-04-03T14:48:46.692Z,40.90
2023-04-03T14:51:15.133Z,40.71
2023-04-03T14:53:43.451Z,39.51
2023-04-03T14:56:26.132Z,40.10
2023-04-03T14:58:56.605Z,40.95
2023-04-03T15:01:23.303Z,41.22
2023-04-03T15:03:49.835Z,40.81
2023-04-03T15:06:16.539Z,41.62
2023-04-03T15:08:44.825Z,40.85
2023-04-03T15:11:13.830Z,41.75
2023-04-03T15:13:40.902Z,43.61
2023-04-03T15:16:15.868Z,43.40
2023-04-03T15:18:42.773Z,43.58
2023-04-03T15:21:09.217Z,43.09
2023-04-03T15:23:35.829Z,43.26
2023-04-03T15:26:02.934Z,44.16
2023-04-03T15:28:38.754Z,43.80
2023-04-03T15:31:06.219Z,44.76
2023-04-03T15:33:34.548Z,44.58
2023-04-03T15:36:07.136Z,44.74
2023-04-03T15:38:43.653Z,46.13
2023-04-03T15:41:10.471Z,47.79
2023-04-03T15:43:36.999Z,49.02
2023-04-03T15:46:03.782Z,48.95
2023-04-03T15:48:30.541Z,49.54
2023-04-03T15:50:57.890Z,49.10
2023-04-03T15:53:26.485Z,49.15
2023-04-03T15:55:52.909Z,50.27
2023-04-03T15:58:19.410Z,51.25
2023-04-03T16:00:46.174Z,52.90
2023-04-03T16:03:17.154Z,48.38
2023-04-03T16:05:43.730Z,48.79
2023-04-03T16:08:12.168Z,48.70
2023-04-03T16:10:40.356Z,49.50
2023-04-03T16:13:07.717Z,48.47
2023-04-03T16:15:36.243Z,50.70
2023-04-03T16:18:03.391Z,53.16
2023-04-03T16:20:31.479Z,51.54
2023-04-03T16:23:00.636Z,54.67
2023-04-03T16:25:27.355Z,55.44
2023-04-03T16:27:54.581Z,53.08
2023-04-03T16:30:21.148Z,54.99
2023-04-03T16:32:47.803Z,54.46
2023-04-03T16:35:14.491Z,54.87
2023-04-03T16:37:41.316Z,55.03
2023-04-03T16:40:08.761Z,56.46
2023-04-03T16:42:37.231Z,53.92
2023-04-03T16:45:06.866Z,54.17
2023-04-03T16:47:33.872Z,58.60
2023-04-03T16:50:00.707Z,57.55
2023-04-03T16:52:27.360Z,60.21
2023-04-03T16:54:56.467Z,62.16
2023-04-03T16:57:25.760Z,59.91
2023-04-03T16:59:53.294Z,63.76
2023-04-03T17:02:20.618Z,64.30
2023-04-03T17:04:47.129Z,66.59
2023-04-03T17:07:13.724Z,67.09
2023-04-03T17:09:40.248Z,70.72
2023-04-03T17:12:06.707Z,70.91
2023-04-03T17:14:33.185Z,70.13
2023-04-03T17:17:02.039Z,68.50
2023-04-03T17:19:29.460Z,69.94
2023-04-03T17:21:56.153Z,72.71
2023-04-03T17:24:23.500Z,70.97
2023-04-03T17:26:50.364Z,72.20
2023-04-03T17:29:18.660Z,69.32
2023-04-03T17:31:45.463Z,71.33
2023-04-03T17:34:12.725Z,74.57
2023-04-03T17:36:40.279Z,71.77
2023-04-03T17:39:08.560Z,68.86
2023-04-03T17:41:35.363Z,65.61
2023-04-03T17:44:02.191Z,65.66
2023-04-03T17:46:30.931Z,69.85
2023-04-03T17:48:59.544Z,71.50
2023-04-03T17:51:26.619Z,75.95
2023-04-03T17:53:53.064Z,73.78
2023-04-03T17:56:23.378Z,76.57
2023-04-03T17:58:51.624Z,78.31
2023-04-03T18:01:23.873Z,78.19
2023-04-03T18:03:54.165Z,79.68
2023-04-03T18:06:23.332Z,83.71
2023-04-03T18:08:55.840Z,83.49
2023-04-03T18:11:29.953Z,79.62
2023-04-03T18:14:02.281Z,82.88
2023-04-03T18:16:29.736Z,79.66
2023-04-03T18:19:11.697Z,84.23
2023-04-03T18:21:42.890Z,85.02
2023-04-03T18:24:13.272Z,85.45
2023-04-03T18:26:42.744Z,83.24
2023-04-03T18:29:11.656Z,83.30
2023-04-03T18:31:44.808Z,84.90
2023-04-03T18:34:12.475Z,86.83
2023-04-03T18:36:39.312Z,88.53
2023-04-03T18:39:05.810Z,92.69
2023-04-03T18:41:35.617Z,91.06
2023-04-03T18:44:04.995Z,89.58
2023-04-03T18:46:33.915Z,93.71
2023-04-03T18:49:01.128Z,91.04
2023-04-03T18:51:28.168Z,95.20
2023-04-03T18:53:58.295Z,94.91
2023-04-03T18:56:24.837Z,97.96
2023-04-03T18:58:51.575Z,99.34
2023-04-03T19:01:18.849Z,99.37
2023-04-03T19:03:46.183Z,100.00
2023-04-03T19:06:13.076Z,99.68
2023-04-03T19:08:40.251Z,100.00
2023-04-03T19:11:07.785Z,100.00
2023-04-03T19:13:35.439Z,100.00
2023-04-03T19:16:02.549Z,100.00
2023-04-03T19:18:29.870Z,100.00
2023-04-03T19:20:57.181Z,100.00
2023-04-03T19:23:25.164Z,100.00
2023-04-03T19:26:06.855Z,100.00
2023-04-03T19:28:34.267Z,100.00
2023-04-03T19:31:01.584Z,100.00
2023-04-03T19:33:28.935Z,100.00
2023-04-03T19:35:55.630Z,100.00
2023-04-03T19:38:22.479Z,100.00
2023-04-03T19:40:49.258Z,100.00
2023-04-03T19:43:16.953Z,100.00
2023-04-03T19:45:44.299Z,100.00
2023-04-03T19:48:11.201Z,100.00
2023-04-03T19:50:38.361Z,100.00
2023-04-03T19:53:05.543Z,100.00
2023-04-03T19:55:32.253Z,100.00
2023-04-03T19:57:59.788Z,100.00
2023-04-03T20:00:26.804Z,100.00
2023-04-03T20:02:53.652Z,100.00
2023-04-03T20:05:20.605Z,100.00
2023-04-03T20:07:48.015Z,100.00
2023-04-03T20:10:16.192Z,100.00
2023-04-03T20:12:42.984Z,100.00
2023-04-03T20:15:10.462Z,100.00
2023-04-03T20:17:37.654Z,100.00
2023-04-03T20:20:05.206Z,100.00
2023-04-03T20:22:32.443Z,100.00
2023-04-03T20:25:05.927Z,100.00
2023-04-03T20:27:34.654Z,100.00
2023-04-03T20:30:03.782Z,100.00
2023-04-03T20:32:34.104Z,100.00
2023-04-03T20:35:04.189Z,100.00
2023-04-03T20:37:31.876Z,100.00
2023-04-03T20:39:58.419Z,100.00
2023-04-03T20:42:25.053Z,100.00
2023-04-03T20:44:53.567Z,100.00
2023-04-03T20:47:20.111Z,100.00
2023-04-03T20:49:46.611Z,100.00
2023-04-03T20:52:14.667Z,100.00
2023-04-03T20:54:41.306Z,100.00
2023-04-03T20:57:07.820Z,100.00
2023-04-03T20:59:37.487Z,100.00
2023-04-03T21:02:03.937Z,100.00
2023-04-03T21:04:41.495Z,100.00
2023-04-03T21:07:46.419Z,100.00
2023-04-03T21:10:50.658Z,100.00
2023-04-03T21:13:54.791Z,100.00
2023-04-03T21:16:21.650Z,100.00
2023-04-03T21:19:08.632Z,100.00
2023-04-03T21:21:37.938Z,100.00
2023-04-03T21:24:07.011Z,100.00
2023-04-03T21:26:34.621Z,100.00
2023-04-03T21:29:01.620Z,100.00
2023-04-03T21:31:58.738Z,100.00
2023-04-03T21:34:30.360Z,100.00
2023-04-03T21:37:02.885Z,100.00
2023-04-03T21:39:29.533Z,100.00
2023-04-03T21:41:56.125Z,100.00
2023-04-03T21:44:23.134Z,100.00
2023-04-03T21:46:54.355Z,100.00
2023-04-03T21:49:25.017Z,100.00
2023-04-03T21:51:52.304Z,100.00
2023-04-03T21:54:19.832Z,100.00
2023-04-03T21:56:48.067Z,100.00
2023-04-03T21:59:14.812Z,100.00
2023-04-03T22:01:41.524Z,100.00
2023-04-03T22:04:08.253Z,100.00
2023-04-03T22:06:34.778Z,100.00
2023-04-03T22:09:01.441Z,100.00
2023-04-03T22:11:28.740Z,100.00
2023-04-03T22:13:55.549Z,100.00
2023-04-03T22:16:23.581Z,100.00
2023-04-03T22:18:52.132Z,100.00
2023-04-03T22:21:18.824Z,100.00
2023-04-03T22:23:45.319Z,100.00
2023-04-03T22:26:13.345Z,100.00
2023-04-03T22:28:45.222Z,100.00
2023-04-03T22:31:17.077Z,100.00
2023-04-03T22:33:44.746Z,100.00
2023-04-03T22:36:12.859Z,100.00
2023-04-03T22:38:43.395Z,100.00
2023-04-03T22:41:10.618Z,100.00
2023-04-03T22:43:38.054Z,100.00
2023-04-03T22:46:06.889Z,100.00
2023-04-03T22:48:33.748Z,100.00
2023-04-03T22:51:04.730Z,100.00
2023-04-03T22:53:31.175Z,100.00
2023-04-03T22:55:59.125Z,100.00
2023-04-03T22:58:26.607Z,100.00
2023-04-03T23:01:05.466Z,100.00
2023-04-03T23:03:32.690Z,100.00
2023-04-03T23:05:59.197Z,100.00
2023-04-03T23:08:25.820Z,100.00
2023-04-03T23:10:56.688Z,100.00
2023-04-03T23:13:23.954Z,100.00
2023-04-03T23:15:57.982Z,100.00
2023-04-03T23:18:25.147Z,100.00
2023-04-03T23:20:52.032Z,100.00
2023-04-03T23:23:19.939Z,100.00
2023-04-03T23:25:51.515Z,100.00
2023-04-03T23:28:17.975Z,100.00
2023-04-03T23:30:46.694Z,100.00
2023-04-03T23:33:13.332Z,100.00
2023-04-03T23:35:46.432Z,100.00
2023-04-03T23:38:13.416Z,100.00
2023-04-03T23:40:41.886Z,100.00
2023-04-03T23:43:08.502Z,100.00
2023-04-03T23:45:35.703Z,100.00
2023-04-03T23:48:02.175Z,100.00
2023-04-03T23:50:29.021Z,100.00
2023-04-03T23:52:57.429Z,100.00
2023-04-03T23:55:23.853Z,100.00
2023-04-03T23:57:50.223Z,100.00
